sensor_id;sensor_type;location;lat;lon;timestamp;P1;durP1;ratioP1;P2;durP2;ratioP2
28774;SDS011;15926;51.348;6.596;2023-07-09T04:05:23;9.43;;;5.57;;
28774;SDS011;15926;51.348;6.596;2023-07-09T04:07:50;7.57;;;5.55;;
28774;SDS011;15926;51.348;6.596;2023-07-09T04:10:16;7.47;;;5.80;;
28774;SDS011;15926;51.348;6.596;2023-07-09T04:12:42;9.23;;;5.97;;
28774;SDS011;15926;51.348;6.596;2023-07-09T04:15:09;7.13;;;5.82;;
28774;SDS011;15926;51.348;6.596;2023-07-09T04:17:35;8.00;;;6.38;;
28774;SDS011;15926;51.348;6.596;2023-07-09T04:20:01;7.03;;;6.03;;
28774;SDS011;15926;51.348;6.596;2023-07-09T04:22:30;11.23;;;5.55;;
28774;SDS011;15926;51.348;6.596;2023-07-09T04:24:56;7.13;;;5.38;;
28774;SDS011;15926;51.348;6.596;2023-07-09T04:27:23;7.50;;;5.65;;
28774;SDS011;15926;51.348;6.596;2023-07-09T04:29:52;10.07;;;5.40;;
28774;SDS011;15926;51.348;6.596;2023-07-09T04:32:18;9.07;;;6.00;;
28774;SDS011;15926;51.348;6.596;2023-07-09T04:34:44;8.00;;;5.30;;
28774;SDS011;15926;51.348;6.596;2023-07-09T04:37:11;8.07;;;6.03;;
28774;SDS011;15926;51.348;6.596;2023-07-09T04:39:37;8.95;;;6.22;;
28774;SDS011;15926;51.348;6.596;2023-07-09T04:42:04;6.78;;;5.72;;
28774;SDS011;15926;51.348;6.596;2023-07-09T04:44:30;6.30;;;5.63;;
28774;SDS011;15926;51.348;6.596;2023-07-09T04:46:57;7.78;;;6.10;;
28774;SDS011;15926;51.348;6.596;2023-07-09T04:49:25;8.95;;;6.25;;
28774;SDS011;15926;51.348;6.596;2023-07-09T04:51:51;7.75;;;6.15;;
28774;SDS011;15926;51.348;6.596;2023-07-09T04:54:17;6.75;;;5.28;;
28774;SDS011;15926;51.348;6.596;2023-07-09T04:56:43;8.45;;;6.18;;
28774;SDS011;15926;51.348;6.596;2023-07-09T04:59:10;7.15;;;5.68;;
28774;SDS011;15926;51.348;6.596;2023-07-09T05:01:36;7.57;;;5.93;;
28774;SDS011;15926;51.348;6.596;2023-07-09T05:04:02;7.82;;;5.82;;
28774;SDS011;15926;51.348;6.596;2023-07-09T05:06:28;10.15;;;5.75;;
28774;SDS011;15926;51.348;6.596;2023-07-09T05:08:55;6.40;;;4.70;;
28774;SDS011;15926;51.348;6.596;2023-07-09T05:11:20;9.15;;;5.55;;
28774;SDS011;15926;51.348;6.596;2023-07-09T05:13:46;6.13;;;4.80;;
28774;SDS011;15926;51.348;6.596;2023-07-09T05:16:12;6.30;;;4.97;;
28774;SDS011;15926;51.348;6.596;2023-07-09T05:18:38;7.65;;;5.50;;
28774;SDS011;15926;51.348;6.596;2023-07-09T05:21:04;9.82;;;5.07;;
28774;SDS011;15926;51.348;6.596;2023-07-09T05:23:30;8.57;;;5.07;;
28774;SDS011;15926;51.348;6.596;2023-07-09T05:26:00;5.20;;;4.50;;
28774;SDS011;15926;51.348;6.596;2023-07-09T05:28:27;8.23;;;5.10;;
28774;SDS011;15926;51.348;6.596;2023-07-09T05:30:53;7.28;;;5.22;;
28774;SDS011;15926;51.348;6.596;2023-07-09T05:33:19;7.38;;;4.63;;
28774;SDS011;15926;51.348;6.596;2023-07-09T05:35:45;6.40;;;4.63;;
28774;SDS011;15926;51.348;6.596;2023-07-09T05:38:11;8.68;;;5.18;;
28774;SDS011;15926;51.348;6.596;2023-07-09T05:40:38;8.00;;;5.50;;
28774;SDS011;15926;51.348;6.596;2023-07-09T05:43:04;9.18;;;5.50;;
28774;SDS011;15926;51.348;6.596;2023-07-09T05:45:30;6.65;;;5.55;;
28774;SDS011;15926;51.348;6.596;2023-07-09T05:47:57;8.68;;;5.03;;
28774;SDS011;15926;51.348;6.596;2023-07-09T05:50:23;6.90;;;5.20;;
28774;SDS011;15926;51.348;6.596;2023-07-09T05:52:49;9.85;;;5.95;;
28774;SDS011;15926;51.348;6.596;2023-07-09T05:55:15;5.28;;;4.68;;
28774;SDS011;15926;51.348;6.596;2023-07-09T05:57:41;8.00;;;4.65;;
28774;SDS011;15926;51.348;6.596;2023-07-09T06:00:07;7.65;;;4.70;;
28774;SDS011;15926;51.348;6.596;2023-07-09T06:02:33;7.85;;;5.22;;
28774;SDS011;15926;51.348;6.596;2023-07-09T06:04:59;6.88;;;5.22;;
28774;SDS011;15926;51.348;6.596;2023-07-09T06:07:25;8.40;;;5.13;;
28774;SDS011;15926;51.348;6.596;2023-07-09T06:09:52;7.72;;;4.75;;
28774;SDS011;15926;51.348;6.596;2023-07-09T06:12:18;8.23;;;5.28;;
28774;SDS011;15926;51.348;6.596;2023-07-09T06:14:45;8.07;;;5.57;;
28774;SDS011;15926;51.348;6.596;2023-07-09T06:17:11;5.50;;;4.70;;
28774;SDS011;15926;51.348;6.596;2023-07-09T06:19:37;10.63;;;5.15;;
28774;SDS011;15926;51.348;6.596;2023-07-09T06:22:03;5.47;;;4.43;;
28774;SDS011;15926;51.348;6.596;2023-07-09T06:24:29;6.88;;;4.97;;
28774;SDS011;15926;51.348;6.596;2023-07-09T06:26:55;6.68;;;4.78;;
28774;SDS011;15926;51.348;6.596;2023-07-09T06:29:23;6.78;;;4.53;;
28774;SDS011;15926;51.348;6.596;2023-07-09T06:31:49;4.70;;;4.30;;
28774;SDS011;15926;51.348;6.596;2023-07-09T06:34:15;5.00;;;4.40;;
28774;SDS011;15926;51.348;6.596;2023-07-09T06:36:41;7.68;;;4.70;;
28774;SDS011;15926;51.348;6.596;2023-07-09T06:39:07;9.15;;;4.90;;
28774;SDS011;15926;51.348;6.596;2023-07-09T06:41:35;6.70;;;4.72;;
28774;SDS011;15926;51.348;6.596;2023-07-09T06:44:05;10.15;;;4.90;;
28774;SDS011;15926;51.348;6.596;2023-07-09T06:46:31;6.05;;;4.35;;
28774;SDS011;15926;51.348;6.596;2023-07-09T06:48:57;5.70;;;4.22;;
28774;SDS011;15926;51.348;6.596;2023-07-09T06:51:23;5.10;;;4.32;;
28774;SDS011;15926;51.348;6.596;2023-07-09T06:53:49;5.57;;;4.35;;
28774;SDS011;15926;51.348;6.596;2023-07-09T06:56:16;6.47;;;4.43;;
28774;SDS011;15926;51.348;6.596;2023-07-09T06:58:42;8.48;;;4.65;;
28774;SDS011;15926;51.348;6.596;2023-07-09T07:01:11;6.13;;;4.90;;
28774;SDS011;15926;51.348;6.596;2023-07-09T07:03:37;4.78;;;4.32;;
28774;SDS011;15926;51.348;6.596;2023-07-09T07:06:03;7.32;;;4.40;;
28774;SDS011;15926;51.348;6.596;2023-07-09T07:08:31;5.53;;;4.28;;
28774;SDS011;15926;51.348;6.596;2023-07-09T07:10:58;11.60;;;5.15;;
28774;SDS011;15926;51.348;6.596;2023-07-09T07:13:31;6.95;;;4.20;;
28774;SDS011;15926;51.348;6.596;2023-07-09T07:15:57;7.68;;;4.63;;
28774;SDS011;15926;51.348;6.596;2023-07-09T07:18:23;5.18;;;4.50;;
28774;SDS011;15926;51.348;6.596;2023-07-09T07:20:50;4.22;;;3.90;;
28774;SDS011;15926;51.348;6.596;2023-07-09T07:23:16;8.27;;;4.13;;
28774;SDS011;15926;51.348;6.596;2023-07-09T07:25:42;6.68;;;4.55;;
28774;SDS011;15926;51.348;6.596;2023-07-09T07:28:08;5.47;;;4.20;;
28774;SDS011;15926;51.348;6.596;2023-07-09T07:30:34;8.43;;;4.20;;
28774;SDS011;15926;51.348;6.596;2023-07-09T07:33:00;6.95;;;4.30;;
28774;SDS011;15926;51.348;6.596;2023-07-09T07:35:26;7.10;;;4.30;;
28774;SDS011;15926;51.348;6.596;2023-07-09T07:37:52;4.50;;;3.92;;
28774;SDS011;15926;51.348;6.596;2023-07-09T07:40:18;4.40;;;4.00;;
28774;SDS011;15926;51.348;6.596;2023-07-09T07:42:44;4.82;;;4.25;;
28774;SDS011;15926;51.348;6.596;2023-07-09T07:45:11;4.80;;;4.28;;
28774;SDS011;15926;51.348;6.596;2023-07-09T07:47:37;8.20;;;3.72;;
28774;SDS011;15926;51.348;6.596;2023-07-09T07:50:05;4.93;;;3.78;;
28774;SDS011;15926;51.348;6.596;2023-07-09T07:52:31;3.85;;;3.45;;
28774;SDS011;15926;51.348;6.596;2023-07-09T07:54:57;4.25;;;3.63;;
28774;SDS011;15926;51.348;6.596;2023-07-09T07:57:26;5.05;;;4.25;;
28774;SDS011;15926;51.348;6.596;2023-07-09T08:02:18;5.03;;;4.10;;
28774;SDS011;15926;51.348;6.596;2023-07-09T08:04:44;7.60;;;4.70;;
28774;SDS011;15926;51.348;6.596;2023-07-09T08:07:10;5.80;;;3.92;;
28774;SDS011;15926;51.348;6.596;2023-07-09T08:09:36;7.90;;;3.80;;
28774;SDS011;15926;51.348;6.596;2023-07-09T08:12:03;6.05;;;4.32;;
28774;SDS011;15926;51.348;6.596;2023-07-09T08:14:35;7.28;;;4.50;;
28774;SDS011;15926;51.348;6.596;2023-07-09T08:17:01;5.00;;;3.83;;
28774;SDS011;15926;51.348;6.596;2023-07-09T08:19:27;7.28;;;3.85;;
28774;SDS011;15926;51.348;6.596;2023-07-09T08:21:53;4.97;;;4.00;;
28774;SDS011;15926;51.348;6.596;2023-07-09T08:24:19;4.43;;;3.80;;
28774;SDS011;15926;51.348;6.596;2023-07-09T08:26:45;5.43;;;4.35;;
28774;SDS011;15926;51.348;6.596;2023-07-09T08:29:11;5.25;;;3.60;;
28774;SDS011;15926;51.348;6.596;2023-07-09T08:31:37;7.55;;;4.25;;
28774;SDS011;15926;51.348;6.596;2023-07-09T08:34:04;5.90;;;4.30;;
28774;SDS011;15926;51.348;6.596;2023-07-09T08:36:31;5.93;;;3.72;;
28774;SDS011;15926;51.348;6.596;2023-07-09T08:38:57;5.38;;;3.95;;
28774;SDS011;15926;51.348;6.596;2023-07-09T08:41:32;4.93;;;4.40;;
28774;SDS011;15926;51.348;6.596;2023-07-09T08:48:56;5.45;;;3.88;;
28774;SDS011;15926;51.348;6.596;2023-07-09T08:51:34;5.97;;;3.70;;
28774;SDS011;15926;51.348;6.596;2023-07-09T08:54:00;4.10;;;3.65;;
28774;SDS011;15926;51.348;6.596;2023-07-09T08:56:27;6.03;;;4.13;;
28774;SDS011;15926;51.348;6.596;2023-07-09T08:58:55;5.75;;;3.72;;
28774;SDS011;15926;51.348;6.596;2023-07-09T09:01:23;4.95;;;3.92;;
28774;SDS011;15926;51.348;6.596;2023-07-09T09:03:50;5.75;;;3.70;;
28774;SDS011;15926;51.348;6.596;2023-07-09T09:09:08;3.83;;;3.42;;
28774;SDS011;15926;51.348;6.596;2023-07-09T09:13:56;5.80;;;4.18;;
28774;SDS011;15926;51.348;6.596;2023-07-09T09:18:50;4.50;;;3.47;;
28774;SDS011;15926;51.348;6.596;2023-07-09T09:24:12;5.13;;;3.65;;
28774;SDS011;15926;51.348;6.596;2023-07-09T09:28:59;9.43;;;4.43;;
28774;SDS011;15926;51.348;6.596;2023-07-09T09:31:26;5.20;;;3.95;;
28774;SDS011;15926;51.348;6.596;2023-07-09T09:33:53;6.80;;;3.97;;
28774;SDS011;15926;51.348;6.596;2023-07-09T09:36:25;4.38;;;3.75;;
28774;SDS011;15926;51.348;6.596;2023-07-09T09:38:51;8.93;;;4.13;;
28774;SDS011;15926;51.348;6.596;2023-07-09T09:41:19;6.18;;;4.38;;
28774;SDS011;15926;51.348;6.596;2023-07-09T09:43:46;4.83;;;4.40;;
28774;SDS011;15926;51.348;6.596;2023-07-09T09:46:19;5.35;;;3.80;;
28774;SDS011;15926;51.348;6.596;2023-07-09T09:48:47;5.40;;;4.30;;
28774;SDS011;15926;51.348;6.596;2023-07-09T09:51:13;4.20;;;3.55;;
28774;SDS011;15926;51.348;6.596;2023-07-09T09:53:40;4.30;;;3.88;;
28774;SDS011;15926;51.348;6.596;2023-07-09T09:56:13;4.68;;;4.10;;
28774;SDS011;15926;51.348;6.596;2023-07-09T09:58:40;6.40;;;3.95;;
28774;SDS011;15926;51.348;6.596;2023-07-09T10:01:14;8.15;;;4.70;;
28774;SDS011;15926;51.348;6.596;2023-07-09T10:03:40;4.95;;;4.53;;
28774;SDS011;15926;51.348;6.596;2023-07-09T10:06:12;5.20;;;4.28;;
28774;SDS011;15926;51.348;6.596;2023-07-09T10:13:43;6.57;;;3.88;;
28774;SDS011;15926;51.348;6.596;2023-07-09T10:16:25;4.22;;;3.83;;
28774;SDS011;15926;51.348;6.596;2023-07-09T10:24:25;3.97;;;3.60;;
28774;SDS011;15926;51.348;6.596;2023-07-09T10:27:17;5.35;;;3.45;;
28774;SDS011;15926;51.348;6.596;2023-07-09T10:32:20;6.97;;;3.60;;
28774;SDS011;15926;51.348;6.596;2023-07-09T10:39:55;6.20;;;3.75;;
28774;SDS011;15926;51.348;6.596;2023-07-09T10:42:44;9.27;;;4.70;;
28774;SDS011;15926;51.348;6.596;2023-07-09T10:45:20;8.95;;;4.25;;
28774;SDS011;15926;51.348;6.596;2023-07-09T10:47:48;6.70;;;3.90;;
28774;SDS011;15926;51.348;6.596;2023-07-09T10:50:17;4.15;;;3.75;;
28774;SDS011;15926;51.348;6.596;2023-07-09T10:52:45;6.18;;;3.83;;
28774;SDS011;15926;51.348;6.596;2023-07-09T10:55:23;4.70;;;4.10;;
28774;SDS011;15926;51.348;6.596;2023-07-09T10:57:54;4.43;;;3.88;;
28774;SDS011;15926;51.348;6.596;2023-07-09T11:00:23;5.95;;;4.10;;
28774;SDS011;15926;51.348;6.596;2023-07-09T11:02:56;5.85;;;3.67;;
28774;SDS011;15926;51.348;6.596;2023-07-09T11:05:23;4.28;;;3.88;;
28774;SDS011;15926;51.348;6.596;2023-07-09T11:10:32;5.13;;;3.67;;
28774;SDS011;15926;51.348;6.596;2023-07-09T11:13:02;4.25;;;3.95;;
28774;SDS011;15926;51.348;6.596;2023-07-09T11:15:31;5.32;;;3.88;;
28774;SDS011;15926;51.348;6.596;2023-07-09T11:17:58;6.07;;;3.67;;
28774;SDS011;15926;51.348;6.596;2023-07-09T11:20:25;5.75;;;4.00;;
28774;SDS011;15926;51.348;6.596;2023-07-09T11:25:31;4.32;;;3.47;;
28774;SDS011;15926;51.348;6.596;2023-07-09T11:28:06;5.15;;;3.80;;
28774;SDS011;15926;51.348;6.596;2023-07-09T11:30:32;5.32;;;3.72;;
28774;SDS011;15926;51.348;6.596;2023-07-09T11:33:00;5.95;;;3.80;;
28774;SDS011;15926;51.348;6.596;2023-07-09T11:35:27;4.15;;;3.50;;
28774;SDS011;15926;51.348;6.596;2023-07-09T11:37:53;5.82;;;4.03;;
28774;SDS011;15926;51.348;6.596;2023-07-09T11:40:20;3.80;;;3.50;;
28774;SDS011;15926;51.348;6.596;2023-07-09T11:42:48;4.15;;;3.78;;
28774;SDS011;15926;51.348;6.596;2023-07-09T11:45:15;4.80;;;4.40;;
28774;SDS011;15926;51.348;6.596;2023-07-09T11:52:44;3.60;;;3.15;;
28774;SDS011;15926;51.348;6.596;2023-07-09T11:57:40;6.57;;;3.60;;
28774;SDS011;15926;51.348;6.596;2023-07-09T12:00:07;3.50;;;3.20;;
28774;SDS011;15926;51.348;6.596;2023-07-09T12:02:34;4.55;;;3.67;;
28774;SDS011;15926;51.348;6.596;2023-07-09T12:05:00;5.97;;;3.63;;
28774;SDS011;15926;51.348;6.596;2023-07-09T12:07:28;4.30;;;3.55;;
28774;SDS011;15926;51.348;6.596;2023-07-09T12:09:55;5.03;;;3.67;;
28774;SDS011;15926;51.348;6.596;2023-07-09T12:12:23;4.18;;;3.78;;
28774;SDS011;15926;51.348;6.596;2023-07-09T12:14:50;4.97;;;3.45;;
28774;SDS011;15926;51.348;6.596;2023-07-09T12:17:16;4.30;;;3.78;;
28774;SDS011;15926;51.348;6.596;2023-07-09T12:19:42;4.75;;;3.63;;
28774;SDS011;15926;51.348;6.596;2023-07-09T12:22:15;5.40;;;3.92;;
28774;SDS011;15926;51.348;6.596;2023-07-09T12:24:43;5.25;;;3.85;;
28774;SDS011;15926;51.348;6.596;2023-07-09T12:27:43;4.82;;;3.88;;
28774;SDS011;15926;51.348;6.596;2023-07-09T12:30:02;4.05;;;3.75;;
28774;SDS011;15926;51.348;6.596;2023-07-09T12:32:28;5.45;;;3.70;;
28774;SDS011;15926;51.348;6.596;2023-07-09T12:34:55;4.45;;;3.35;;
28774;SDS011;15926;51.348;6.596;2023-07-09T12:37:21;4.57;;;3.55;;
28774;SDS011;15926;51.348;6.596;2023-07-09T12:39:49;4.55;;;4.15;;
28774;SDS011;15926;51.348;6.596;2023-07-09T12:42:23;4.20;;;3.90;;
28774;SDS011;15926;51.348;6.596;2023-07-09T12:44:50;3.95;;;3.55;;
28774;SDS011;15926;51.348;6.596;2023-07-09T12:47:16;4.05;;;3.60;;
28774;SDS011;15926;51.348;6.596;2023-07-09T12:49:44;4.40;;;3.42;;
28774;SDS011;15926;51.348;6.596;2023-07-09T12:52:19;4.45;;;4.05;;
28774;SDS011;15926;51.348;6.596;2023-07-09T12:54:55;3.85;;;3.47;;
28774;SDS011;15926;51.348;6.596;2023-07-09T12:57:21;3.45;;;3.13;;
28774;SDS011;15926;51.348;6.596;2023-07-09T12:59:47;18.25;;;4.53;;
28774;SDS011;15926;51.348;6.596;2023-07-09T13:02:16;5.28;;;4.07;;
28774;SDS011;15926;51.348;6.596;2023-07-09T13:09:53;4.30;;;3.83;;
28774;SDS011;15926;51.348;6.596;2023-07-09T13:12:20;4.57;;;4.10;;
28774;SDS011;15926;51.348;6.596;2023-07-09T13:14:53;5.93;;;3.70;;
28774;SDS011;15926;51.348;6.596;2023-07-09T13:17:19;7.03;;;4.00;;
28774;SDS011;15926;51.348;6.596;2023-07-09T13:19:45;6.97;;;3.38;;
28774;SDS011;15926;51.348;6.596;2023-07-09T13:22:12;4.40;;;3.70;;
28774;SDS011;15926;51.348;6.596;2023-07-09T13:24:39;6.78;;;3.90;;
28774;SDS011;15926;51.348;6.596;2023-07-09T13:27:07;6.07;;;3.90;;
28774;SDS011;15926;51.348;6.596;2023-07-09T13:29:35;4.65;;;4.10;;
28774;SDS011;15926;51.348;6.596;2023-07-09T13:32:01;3.85;;;2.90;;
28774;SDS011;15926;51.348;6.596;2023-07-09T13:34:27;4.65;;;3.55;;
28774;SDS011;15926;51.348;6.596;2023-07-09T13:36:56;8.50;;;3.72;;
28774;SDS011;15926;51.348;6.596;2023-07-09T13:39:22;7.10;;;3.85;;
28774;SDS011;15926;51.348;6.596;2023-07-09T13:41:49;6.75;;;4.00;;
28774;SDS011;15926;51.348;6.596;2023-07-09T13:44:20;4.07;;;3.67;;
28774;SDS011;15926;51.348;6.596;2023-07-09T13:46:46;7.38;;;3.55;;
28774;SDS011;15926;51.348;6.596;2023-07-09T13:49:13;6.85;;;3.65;;
28774;SDS011;15926;51.348;6.596;2023-07-09T13:51:44;6.65;;;3.38;;
28774;SDS011;15926;51.348;6.596;2023-07-09T13:54:18;3.70;;;3.40;;
28774;SDS011;15926;51.348;6.596;2023-07-09T13:56:44;6.45;;;3.63;;
28774;SDS011;15926;51.348;6.596;2023-07-09T13:59:14;5.32;;;3.70;;
28774;SDS011;15926;51.348;6.596;2023-07-09T14:01:41;4.45;;;3.85;;
28774;SDS011;15926;51.348;6.596;2023-07-09T14:04:08;6.63;;;3.70;;
28774;SDS011;15926;51.348;6.596;2023-07-09T14:06:35;6.13;;;3.78;;
28774;SDS011;15926;51.348;6.596;2023-07-09T14:09:01;4.55;;;3.75;;
28774;SDS011;15926;51.348;6.596;2023-07-09T14:11:28;5.90;;;3.65;;
28774;SDS011;15926;51.348;6.596;2023-07-09T14:13:55;5.82;;;4.28;;
28774;SDS011;15926;51.348;6.596;2023-07-09T14:16:21;4.43;;;3.40;;
28774;SDS011;15926;51.348;6.596;2023-07-09T14:18:47;8.65;;;3.92;;
28774;SDS011;15926;51.348;6.596;2023-07-09T14:21:14;8.48;;;4.18;;
28774;SDS011;15926;51.348;6.596;2023-07-09T14:23:40;6.07;;;3.92;;
28774;SDS011;15926;51.348;6.596;2023-07-09T14:26:08;5.55;;;4.07;;
28774;SDS011;15926;51.348;6.596;2023-07-09T14:28:34;6.72;;;4.35;;
28774;SDS011;15926;51.348;6.596;2023-07-09T14:31:03;8.57;;;3.88;;
28774;SDS011;15926;51.348;6.596;2023-07-09T14:33:29;10.25;;;4.32;;
28774;SDS011;15926;51.348;6.596;2023-07-09T14:35:56;12.15;;;3.70;;
28774;SDS011;15926;51.348;6.596;2023-07-09T14:38:22;4.75;;;3.70;;
28774;SDS011;15926;51.348;6.596;2023-07-09T14:40:49;6.00;;;3.60;;
28774;SDS011;15926;51.348;6.596;2023-07-09T14:43:16;3.90;;;3.40;;
28774;SDS011;15926;51.348;6.596;2023-07-09T14:45:42;4.75;;;3.40;;
28774;SDS011;15926;51.348;6.596;2023-07-09T14:48:15;6.60;;;4.57;;
28774;SDS011;15926;51.348;6.596;2023-07-09T14:50:42;11.35;;;5.00;;
28774;SDS011;15926;51.348;6.596;2023-07-09T14:53:42;8.95;;;5.18;;
28774;SDS011;15926;51.348;6.596;2023-07-09T14:56:01;16.02;;;8.02;;
28774;SDS011;15926;51.348;6.596;2023-07-09T14:58:27;9.68;;;6.57;;
28774;SDS011;15926;51.348;6.596;2023-07-09T15:00:53;7.68;;;6.15;;
28774;SDS011;15926;51.348;6.596;2023-07-09T15:03:23;5.15;;;4.68;;
28774;SDS011;15926;51.348;6.596;2023-07-09T15:05:50;6.53;;;2.80;;
28774;SDS011;15926;51.348;6.596;2023-07-09T15:08:17;3.35;;;3.05;;
28774;SDS011;15926;51.348;6.596;2023-07-09T15:10:44;3.10;;;2.25;;
28774;SDS011;15926;51.348;6.596;2023-07-09T15:13:21;8.07;;;2.70;;
28774;SDS011;15926;51.348;6.596;2023-07-09T15:15:49;4.60;;;2.70;;
28774;SDS011;15926;51.348;6.596;2023-07-09T15:18:15;3.42;;;2.70;;
28774;SDS011;15926;51.348;6.596;2023-07-09T15:20:54;6.00;;;3.53;;
28774;SDS011;15926;51.348;6.596;2023-07-09T15:25:47;6.88;;;3.63;;
28774;SDS011;15926;51.348;6.596;2023-07-09T15:28:14;8.52;;;4.40;;
28774;SDS011;15926;51.348;6.596;2023-07-09T15:30:40;9.45;;;6.35;;
28774;SDS011;15926;51.348;6.596;2023-07-09T15:33:09;10.65;;;6.57;;
28774;SDS011;15926;51.348;6.596;2023-07-09T15:35:38;10.30;;;7.20;;
28774;SDS011;15926;51.348;6.596;2023-07-09T15:38:21;10.18;;;7.45;;
28774;SDS011;15926;51.348;6.596;2023-07-09T15:40:51;11.55;;;9.25;;
28774;SDS011;15926;51.348;6.596;2023-07-09T15:43:17;14.95;;;10.38;;
28774;SDS011;15926;51.348;6.596;2023-07-09T15:45:47;18.20;;;10.65;;
28774;SDS011;15926;51.348;6.596;2023-07-09T15:48:49;13.73;;;11.95;;
28774;SDS011;15926;51.348;6.596;2023-07-09T15:51:07;17.95;;;13.48;;
28774;SDS011;15926;51.348;6.596;2023-07-09T15:53:34;16.95;;;13.32;;
28774;SDS011;15926;51.348;6.596;2023-07-09T15:56:01;18.38;;;13.27;;
28774;SDS011;15926;51.348;6.596;2023-07-09T15:58:29;17.20;;;13.85;;
28774;SDS011;15926;51.348;6.596;2023-07-09T16:00:56;18.23;;;15.32;;
28774;SDS011;15926;51.348;6.596;2023-07-09T16:03:22;20.05;;;14.73;;
28774;SDS011;15926;51.348;6.596;2023-07-09T16:05:49;15.38;;;13.77;;
28774;SDS011;15926;51.348;6.596;2023-07-09T16:08:15;19.45;;;14.43;;
28774;SDS011;15926;51.348;6.596;2023-07-09T16:10:41;19.02;;;15.45;;
28774;SDS011;15926;51.348;6.596;2023-07-09T16:13:25;19.08;;;13.82;;
28774;SDS011;15926;51.348;6.596;2023-07-09T16:15:52;13.20;;;11.45;;
28774;SDS011;15926;51.348;6.596;2023-07-09T16:18:18;13.38;;;10.90;;
28774;SDS011;15926;51.348;6.596;2023-07-09T16:20:44;14.95;;;9.63;;
28774;SDS011;15926;51.348;6.596;2023-07-09T16:23:12;11.95;;;9.55;;
28774;SDS011;15926;51.348;6.596;2023-07-09T16:25:40;14.73;;;9.88;;
28774;SDS011;15926;51.348;6.596;2023-07-09T16:28:08;10.95;;;9.27;;
28774;SDS011;15926;51.348;6.596;2023-07-09T16:30:36;12.77;;;9.43;;
28774;SDS011;15926;51.348;6.596;2023-07-09T16:33:02;10.93;;;9.50;;
28774;SDS011;15926;51.348;6.596;2023-07-09T16:35:28;10.48;;;9.23;;
28774;SDS011;15926;51.348;6.596;2023-07-09T16:37:55;12.82;;;10.27;;
28774;SDS011;15926;51.348;6.596;2023-07-09T16:40:25;12.88;;;10.60;;
28774;SDS011;15926;51.348;6.596;2023-07-09T16:42:52;11.65;;;10.18;;
28774;SDS011;15926;51.348;6.596;2023-07-09T16:45:19;12.98;;;10.15;;
28774;SDS011;15926;51.348;6.596;2023-07-09T16:47:46;14.45;;;10.18;;
28774;SDS011;15926;51.348;6.596;2023-07-09T16:50:22;11.23;;;9.50;;
28774;SDS011;15926;51.348;6.596;2023-07-09T16:52:49;12.30;;;10.20;;
28774;SDS011;15926;51.348;6.596;2023-07-09T16:55:19;18.92;;;11.02;;
28774;SDS011;15926;51.348;6.596;2023-07-09T16:57:50;12.95;;;11.10;;
28774;SDS011;15926;51.348;6.596;2023-07-09T17:00:50;14.80;;;12.07;;
28774;SDS011;15926;51.348;6.596;2023-07-09T17:03:11;14.88;;;10.77;;
28774;SDS011;15926;51.348;6.596;2023-07-09T17:05:38;14.25;;;11.73;;
28774;SDS011;15926;51.348;6.596;2023-07-09T17:08:04;14.80;;;11.73;;
28774;SDS011;15926;51.348;6.596;2023-07-09T17:10:30;17.02;;;12.05;;
28774;SDS011;15926;51.348;6.596;2023-07-09T17:12:57;16.40;;;11.52;;
28774;SDS011;15926;51.348;6.596;2023-07-09T17:15:25;18.85;;;13.00;;
28774;SDS011;15926;51.348;6.596;2023-07-09T17:17:52;16.45;;;12.57;;
28774;SDS011;15926;51.348;6.596;2023-07-09T17:20:18;15.98;;;12.52;;
28774;SDS011;15926;51.348;6.596;2023-07-09T17:22:44;21.77;;;13.95;;
28774;SDS011;15926;51.348;6.596;2023-07-09T17:25:32;13.73;;;11.40;;
28774;SDS011;15926;51.348;6.596;2023-07-09T17:27:58;13.75;;;10.63;;
28774;SDS011;15926;51.348;6.596;2023-07-09T17:30:25;15.52;;;11.50;;
28774;SDS011;15926;51.348;6.596;2023-07-09T17:32:52;11.35;;;10.20;;
28774;SDS011;15926;51.348;6.596;2023-07-09T17:35:18;12.93;;;9.18;;
28774;SDS011;15926;51.348;6.596;2023-07-09T17:37:48;12.35;;;9.60;;
28774;SDS011;15926;51.348;6.596;2023-07-09T17:40:25;10.50;;;8.10;;
28774;SDS011;15926;51.348;6.596;2023-07-09T17:42:52;10.35;;;7.40;;
28774;SDS011;15926;51.348;6.596;2023-07-09T17:45:18;8.18;;;6.93;;
28774;SDS011;15926;51.348;6.596;2023-07-09T17:47:44;9.25;;;7.20;;
28774;SDS011;15926;51.348;6.596;2023-07-09T17:50:14;7.90;;;6.88;;
28774;SDS011;15926;51.348;6.596;2023-07-09T17:52:40;13.85;;;6.68;;
28774;SDS011;15926;51.348;6.596;2023-07-09T17:55:06;8.20;;;6.93;;
28774;SDS011;15926;51.348;6.596;2023-07-09T17:57:33;7.47;;;6.53;;
28774;SDS011;15926;51.348;6.596;2023-07-09T17:59:59;16.00;;;6.43;;
28774;SDS011;15926;51.348;6.596;2023-07-09T18:02:27;8.88;;;6.22;;
28774;SDS011;15926;51.348;6.596;2023-07-09T18:04:53;10.95;;;6.07;;
28774;SDS011;15926;51.348;6.596;2023-07-09T18:07:27;10.80;;;6.55;;
28774;SDS011;15926;51.348;6.596;2023-07-09T18:09:54;8.27;;;5.95;;
28774;SDS011;15926;51.348;6.596;2023-07-09T18:12:21;9.10;;;6.82;;
28774;SDS011;15926;51.348;6.596;2023-07-09T18:14:49;7.32;;;6.47;;
28774;SDS011;15926;51.348;6.596;2023-07-09T18:17:17;6.15;;;5.32;;
28774;SDS011;15926;51.348;6.596;2023-07-09T18:19:47;8.02;;;6.50;;
28774;SDS011;15926;51.348;6.596;2023-07-09T18:22:17;8.15;;;6.90;;
28774;SDS011;15926;51.348;6.596;2023-07-09T18:24:44;7.68;;;6.68;;
28774;SDS011;15926;51.348;6.596;2023-07-09T18:27:12;8.52;;;6.32;;
28774;SDS011;15926;51.348;6.596;2023-07-09T18:29:39;7.03;;;6.32;;
28774;SDS011;15926;51.348;6.596;2023-07-09T18:32:08;10.93;;;7.75;;
28774;SDS011;15926;51.348;6.596;2023-07-09T18:34:39;8.73;;;6.93;;
28774;SDS011;15926;51.348;6.596;2023-07-09T18:37:05;8.70;;;7.22;;
28774;SDS011;15926;51.348;6.596;2023-07-09T18:39:31;9.30;;;6.63;;
28774;SDS011;15926;51.348;6.596;2023-07-09T18:41:57;8.90;;;7.10;;
28774;SDS011;15926;51.348;6.596;2023-07-09T18:44:23;7.55;;;6.80;;
28774;SDS011;15926;51.348;6.596;2023-07-09T18:46:49;10.73;;;7.68;;
28774;SDS011;15926;51.348;6.596;2023-07-09T18:49:15;8.32;;;7.43;;
28774;SDS011;15926;51.348;6.596;2023-07-09T18:51:42;9.73;;;7.38;;
28774;SDS011;15926;51.348;6.596;2023-07-09T18:54:18;10.20;;;7.57;;
28774;SDS011;15926;51.348;6.596;2023-07-09T18:56:47;8.65;;;7.45;;
28774;SDS011;15926;51.348;6.596;2023-07-09T18:59:15;12.30;;;7.57;;
28774;SDS011;15926;51.348;6.596;2023-07-09T19:04:11;11.45;;;9.95;;
28774;SDS011;15926;51.348;6.596;2023-07-09T19:06:38;13.15;;;11.13;;
28774;SDS011;15926;51.348;6.596;2023-07-09T19:09:08;13.73;;;11.40;;
28774;SDS011;15926;51.348;6.596;2023-07-09T19:11:38;14.13;;;10.30;;
28774;SDS011;15926;51.348;6.596;2023-07-09T19:14:04;16.52;;;11.73;;
28774;SDS011;15926;51.348;6.596;2023-07-09T19:16:30;14.32;;;10.60;;
28774;SDS011;15926;51.348;6.596;2023-07-09T19:18:56;13.27;;;10.35;;
28774;SDS011;15926;51.348;6.596;2023-07-09T19:21:22;14.70;;;10.52;;
28774;SDS011;15926;51.348;6.596;2023-07-09T19:23:49;11.98;;;10.63;;
28774;SDS011;15926;51.348;6.596;2023-07-09T19:26:15;16.02;;;12.05;;
28774;SDS011;15926;51.348;6.596;2023-07-09T19:28:40;13.77;;;11.73;;
28774;SDS011;15926;51.348;6.596;2023-07-09T19:31:07;19.73;;;11.27;;
28774;SDS011;15926;51.348;6.596;2023-07-09T19:33:34;15.35;;;12.27;;
28774;SDS011;15926;51.348;6.596;2023-07-09T19:36:01;13.18;;;11.05;;
28774;SDS011;15926;51.348;6.596;2023-07-09T19:38:27;14.70;;;10.90;;
28774;SDS011;15926;51.348;6.596;2023-07-09T19:40:53;12.75;;;10.85;;
28774;SDS011;15926;51.348;6.596;2023-07-09T19:43:19;12.98;;;11.30;;
28774;SDS011;15926;51.348;6.596;2023-07-09T19:45:45;13.35;;;11.45;;
28774;SDS011;15926;51.348;6.596;2023-07-09T19:48:16;14.25;;;11.40;;
28774;SDS011;15926;51.348;6.596;2023-07-09T19:50:42;14.75;;;11.23;;
28774;SDS011;15926;51.348;6.596;2023-07-09T19:55:38;21.83;;;12.07;;